sensor_id;sensor_type;location;lat;lon;timestamp;P1;durP1;ratioP1;P2;durP2;ratioP2
51664;SDS011;37751;52.408;12.536;2024-03-02T00:00:25;65.03;;;33.83;;
51664;SDS011;37751;52.408;12.536;2024-03-02T00:02:57;64.82;;;34.72;;
51664;SDS011;37751;52.408;12.536;2024-03-02T00:05:28;66.28;;;34.45;;
51664;SDS011;37751;52.408;12.536;2024-03-02T00:08:00;65.85;;;34.40;;
51664;SDS011;37751;52.408;12.536;2024-03-02T00:10:34;67.60;;;34.97;;
51664;SDS011;37751;52.408;12.536;2024-03-02T00:13:11;62.33;;;32.55;;
51664;SDS011;37751;52.408;12.536;2024-03-02T00:15:46;65.85;;;33.45;;
51664;SDS011;37751;52.408;12.536;2024-03-02T00:18:19;62.90;;;33.70;;
51664;SDS011;37751;52.408;12.536;2024-03-02T00:20:54;63.88;;;34.60;;
51664;SDS011;37751;52.408;12.536;2024-03-02T00:23:27;60.70;;;33.55;;
51664;SDS011;37751;52.408;12.536;2024-03-02T00:26:01;66.20;;;34.05;;
51664;SDS011;37751;52.408;12.536;2024-03-02T00:28:35;63.80;;;34.22;;
51664;SDS011;37751;52.408;12.536;2024-03-02T00:31:07;60.85;;;32.50;;
51664;SDS011;37751;52.408;12.536;2024-03-02T00:33:41;61.88;;;32.17;;
51664;SDS011;37751;52.408;12.536;2024-03-02T00:36:15;62.20;;;32.47;;
51664;SDS011;37751;52.408;12.536;2024-03-02T00:38:52;67.65;;;33.88;;
51664;SDS011;37751;52.408;12.536;2024-03-02T00:41:26;63.58;;;34.30;;
51664;SDS011;37751;52.408;12.536;2024-03-02T00:44:02;66.18;;;35.05;;
51664;SDS011;37751;52.408;12.536;2024-03-02T00:46:37;70.18;;;33.28;;
51664;SDS011;37751;52.408;12.536;2024-03-02T00:49:12;68.75;;;32.97;;
51664;SDS011;37751;52.408;12.536;2024-03-02T00:51:51;65.95;;;33.70;;
51664;SDS011;37751;52.408;12.536;2024-03-02T00:54:23;66.38;;;35.65;;
51664;SDS011;37751;52.408;12.536;2024-03-02T00:56:56;72.00;;;36.05;;
51664;SDS011;37751;52.408;12.536;2024-03-02T00:59:31;67.45;;;34.28;;
51664;SDS011;37751;52.408;12.536;2024-03-02T01:02:02;63.53;;;33.53;;
51664;SDS011;37751;52.408;12.536;2024-03-02T01:04:33;58.67;;;33.10;;
51664;SDS011;37751;52.408;12.536;2024-03-02T01:07:04;69.32;;;35.58;;
51664;SDS011;37751;52.408;12.536;2024-03-02T01:09:35;66.55;;;33.13;;
51664;SDS011;37751;52.408;12.536;2024-03-02T01:12:08;59.42;;;32.03;;
51664;SDS011;37751;52.408;12.536;2024-03-02T01:14:42;60.80;;;33.00;;
51664;SDS011;37751;52.408;12.536;2024-03-02T01:17:13;60.30;;;32.83;;
51664;SDS011;37751;52.408;12.536;2024-03-02T01:19:45;64.28;;;33.22;;
51664;SDS011;37751;52.408;12.536;2024-03-02T01:22:16;53.03;;;31.70;;
51664;SDS011;37751;52.408;12.536;2024-03-02T01:24:52;60.20;;;32.92;;
51664;SDS011;37751;52.408;12.536;2024-03-02T01:27:23;59.35;;;33.70;;
51664;SDS011;37751;52.408;12.536;2024-03-02T01:29:58;63.70;;;33.13;;
51664;SDS011;37751;52.408;12.536;2024-03-02T01:32:29;65.07;;;33.67;;
51664;SDS011;37751;52.408;12.536;2024-03-02T01:35:00;67.97;;;34.00;;
51664;SDS011;37751;52.408;12.536;2024-03-02T01:37:31;69.97;;;33.63;;
51664;SDS011;37751;52.408;12.536;2024-03-02T01:40:02;67.93;;;35.35;;
51664;SDS011;37751;52.408;12.536;2024-03-02T01:42:36;67.60;;;34.08;;
51664;SDS011;37751;52.408;12.536;2024-03-02T01:45:10;66.28;;;34.08;;
51664;SDS011;37751;52.408;12.536;2024-03-02T01:47:42;59.15;;;33.97;;
51664;SDS011;37751;52.408;12.536;2024-03-02T01:50:13;70.28;;;36.38;;
51664;SDS011;37751;52.408;12.536;2024-03-02T01:52:45;68.25;;;34.55;;
51664;SDS011;37751;52.408;12.536;2024-03-02T01:55:16;66.65;;;34.15;;
51664;SDS011;37751;52.408;12.536;2024-03-02T01:57:48;65.45;;;35.97;;
51664;SDS011;37751;52.408;12.536;2024-03-02T02:00:25;63.95;;;35.58;;
51664;SDS011;37751;52.408;12.536;2024-03-02T02:02:57;68.50;;;34.38;;
51664;SDS011;37751;52.408;12.536;2024-03-02T02:05:44;69.50;;;35.35;;
51664;SDS011;37751;52.408;12.536;2024-03-02T02:08:39;75.35;;;36.10;;
51664;SDS011;37751;52.408;12.536;2024-03-02T02:11:53;69.97;;;35.22;;
51664;SDS011;37751;52.408;12.536;2024-03-02T02:14:25;71.57;;;35.85;;
51664;SDS011;37751;52.408;12.536;2024-03-02T02:17:18;73.93;;;36.20;;
51664;SDS011;37751;52.408;12.536;2024-03-02T02:19:54;80.82;;;35.28;;
51664;SDS011;37751;52.408;12.536;2024-03-02T02:22:39;69.32;;;35.53;;
51664;SDS011;37751;52.408;12.536;2024-03-02T02:25:19;70.75;;;37.08;;
51664;SDS011;37751;52.408;12.536;2024-03-02T02:28:01;67.60;;;36.22;;
51664;SDS011;37751;52.408;12.536;2024-03-02T02:30:34;71.47;;;35.83;;
51664;SDS011;37751;52.408;12.536;2024-03-02T02:33:28;73.15;;;36.72;;
51664;SDS011;37751;52.408;12.536;2024-03-02T02:36:30;63.35;;;33.53;;
51664;SDS011;37751;52.408;12.536;2024-03-02T02:39:07;71.53;;;36.25;;
51664;SDS011;37751;52.408;12.536;2024-03-02T02:41:42;64.53;;;35.70;;
51664;SDS011;37751;52.408;12.536;2024-03-02T02:44:27;63.78;;;34.55;;
51664;SDS011;37751;52.408;12.536;2024-03-02T02:46:59;68.75;;;35.28;;
51664;SDS011;37751;52.408;12.536;2024-03-02T02:49:45;60.80;;;33.70;;
51664;SDS011;37751;52.408;12.536;2024-03-02T02:52:22;72.75;;;34.45;;
51664;SDS011;37751;52.408;12.536;2024-03-02T02:55:23;65.72;;;34.70;;
51664;SDS011;37751;52.408;12.536;2024-03-02T02:58:15;69.93;;;35.92;;
51664;SDS011;37751;52.408;12.536;2024-03-02T03:00:46;67.82;;;36.28;;
51664;SDS011;37751;52.408;12.536;2024-03-02T03:03:17;64.03;;;35.05;;
51664;SDS011;37751;52.408;12.536;2024-03-02T03:06:09;64.85;;;33.25;;
51664;SDS011;37751;52.408;12.536;2024-03-02T03:08:48;69.50;;;37.65;;
51664;SDS011;37751;52.408;12.536;2024-03-02T03:11:36;68.47;;;35.45;;
51664;SDS011;37751;52.408;12.536;2024-03-02T03:14:28;70.60;;;34.40;;
51664;SDS011;37751;52.408;12.536;2024-03-02T03:17:12;71.60;;;35.05;;
51664;SDS011;37751;52.408;12.536;2024-03-02T03:20:06;66.47;;;35.70;;
51664;SDS011;37751;52.408;12.536;2024-03-02T03:22:39;65.50;;;35.50;;
51664;SDS011;37751;52.408;12.536;2024-03-02T03:25:14;67.18;;;35.55;;
51664;SDS011;37751;52.408;12.536;2024-03-02T03:28:19;65.50;;;35.67;;
51664;SDS011;37751;52.408;12.536;2024-03-02T03:31:11;62.55;;;34.80;;
51664;SDS011;37751;52.408;12.536;2024-03-02T03:34:21;66.72;;;37.03;;
51664;SDS011;37751;52.408;12.536;2024-03-02T03:36:54;77.32;;;38.63;;
51664;SDS011;37751;52.408;12.536;2024-03-02T03:39:33;70.70;;;36.70;;
51664;SDS011;37751;52.408;12.536;2024-03-02T03:42:05;71.95;;;36.97;;
51664;SDS011;37751;52.408;12.536;2024-03-02T03:44:39;64.75;;;34.47;;
51664;SDS011;37751;52.408;12.536;2024-03-02T03:47:30;70.38;;;37.53;;
51664;SDS011;37751;52.408;12.536;2024-03-02T03:50:02;65.60;;;36.22;;
51664;SDS011;37751;52.408;12.536;2024-03-02T03:52:35;69.95;;;37.03;;
51664;SDS011;37751;52.408;12.536;2024-03-02T03:55:27;69.53;;;36.05;;
51664;SDS011;37751;52.408;12.536;2024-03-02T03:57:58;71.68;;;35.45;;
51664;SDS011;37751;52.408;12.536;2024-03-02T04:00:53;67.50;;;35.08;;
51664;SDS011;37751;52.408;12.536;2024-03-02T04:03:32;73.28;;;37.00;;
51664;SDS011;37751;52.408;12.536;2024-03-02T04:06:06;67.35;;;36.30;;
51664;SDS011;37751;52.408;12.536;2024-03-02T04:08:46;72.10;;;38.13;;
51664;SDS011;37751;52.408;12.536;2024-03-02T04:11:37;75.10;;;38.03;;
51664;SDS011;37751;52.408;12.536;2024-03-02T04:14:10;71.47;;;36.42;;
51664;SDS011;37751;52.408;12.536;2024-03-02T04:17:04;69.90;;;36.00;;
51664;SDS011;37751;52.408;12.536;2024-03-02T04:19:36;74.43;;;37.33;;
51664;SDS011;37751;52.408;12.536;2024-03-02T04:22:13;76.43;;;39.60;;
51664;SDS011;37751;52.408;12.536;2024-03-02T04:24:54;71.78;;;38.28;;
51664;SDS011;37751;52.408;12.536;2024-03-02T04:27:35;71.13;;;36.72;;
51664;SDS011;37751;52.408;12.536;2024-03-02T04:30:09;69.00;;;37.30;;
51664;SDS011;37751;52.408;12.536;2024-03-02T04:32:45;72.85;;;37.60;;
51664;SDS011;37751;52.408;12.536;2024-03-02T04:35:16;69.72;;;36.35;;
51664;SDS011;37751;52.408;12.536;2024-03-02T04:37:48;79.55;;;38.05;;
51664;SDS011;37751;52.408;12.536;2024-03-02T04:40:19;71.40;;;37.97;;
51664;SDS011;37751;52.408;12.536;2024-03-02T04:42:50;71.75;;;38.50;;
51664;SDS011;37751;52.408;12.536;2024-03-02T04:45:25;77.38;;;38.05;;
51664;SDS011;37751;52.408;12.536;2024-03-02T04:48:01;72.97;;;39.15;;
51664;SDS011;37751;52.408;12.536;2024-03-02T04:50:33;76.28;;;38.53;;
51664;SDS011;37751;52.408;12.536;2024-03-02T04:53:04;72.38;;;39.03;;
51664;SDS011;37751;52.408;12.536;2024-03-02T04:55:35;70.53;;;38.42;;
51664;SDS011;37751;52.408;12.536;2024-03-02T04:58:33;89.85;;;40.38;;
51664;SDS011;37751;52.408;12.536;2024-03-02T05:01:04;78.53;;;41.22;;
51664;SDS011;37751;52.408;12.536;2024-03-02T05:03:39;79.65;;;40.05;;
51664;SDS011;37751;52.408;12.536;2024-03-02T05:06:10;80.35;;;39.22;;
51664;SDS011;37751;52.408;12.536;2024-03-02T05:08:51;76.05;;;39.28;;
51664;SDS011;37751;52.408;12.536;2024-03-02T05:11:27;73.57;;;39.30;;
51664;SDS011;37751;52.408;12.536;2024-03-02T05:14:18;77.63;;;39.45;;
51664;SDS011;37751;52.408;12.536;2024-03-02T05:16:51;73.20;;;39.25;;
51664;SDS011;37751;52.408;12.536;2024-03-02T05:19:26;83.70;;;41.35;;
51664;SDS011;37751;52.408;12.536;2024-03-02T05:21:58;75.72;;;40.47;;
51664;SDS011;37751;52.408;12.536;2024-03-02T05:24:33;78.85;;;40.83;;
51664;SDS011;37751;52.408;12.536;2024-03-02T05:27:05;83.75;;;41.88;;
51664;SDS011;37751;52.408;12.536;2024-03-02T05:29:36;83.68;;;39.60;;
51664;SDS011;37751;52.408;12.536;2024-03-02T05:32:09;79.85;;;40.75;;
51664;SDS011;37751;52.408;12.536;2024-03-02T05:34:43;90.53;;;43.08;;
51664;SDS011;37751;52.408;12.536;2024-03-02T05:37:15;78.93;;;42.13;;
51664;SDS011;37751;52.408;12.536;2024-03-02T05:39:47;82.40;;;42.50;;
51664;SDS011;37751;52.408;12.536;2024-03-02T05:42:24;78.15;;;41.35;;
51664;SDS011;37751;52.408;12.536;2024-03-02T05:44:55;91.05;;;42.85;;
51664;SDS011;37751;52.408;12.536;2024-03-02T05:47:29;86.55;;;44.47;;
51664;SDS011;37751;52.408;12.536;2024-03-02T05:50:09;86.43;;;43.55;;
51664;SDS011;37751;52.408;12.536;2024-03-02T05:52:41;88.57;;;42.83;;
51664;SDS011;37751;52.408;12.536;2024-03-02T05:55:28;84.90;;;43.28;;
51664;SDS011;37751;52.408;12.536;2024-03-02T05:58:00;88.68;;;42.05;;
51664;SDS011;37751;52.408;12.536;2024-03-02T06:01:05;87.18;;;43.35;;
51664;SDS011;37751;52.408;12.536;2024-03-02T06:03:37;86.05;;;44.70;;
51664;SDS011;37751;52.408;12.536;2024-03-02T06:06:32;92.18;;;43.97;;
51664;SDS011;37751;52.408;12.536;2024-03-02T06:09:44;88.47;;;45.60;;
51664;SDS011;37751;52.408;12.536;2024-03-02T06:12:38;87.07;;;43.25;;
51664;SDS011;37751;52.408;12.536;2024-03-02T06:15:22;81.50;;;43.88;;
51664;SDS011;37751;52.408;12.536;2024-03-02T06:18:13;87.28;;;44.60;;
51664;SDS011;37751;52.408;12.536;2024-03-02T06:20:45;81.10;;;43.55;;
51664;SDS011;37751;52.408;12.536;2024-03-02T06:23:21;87.45;;;43.20;;
51664;SDS011;37751;52.408;12.536;2024-03-02T06:26:11;97.60;;;49.08;;
51664;SDS011;37751;52.408;12.536;2024-03-02T06:28:42;91.50;;;45.83;;
51664;SDS011;37751;52.408;12.536;2024-03-02T06:31:13;89.88;;;43.95;;
51664;SDS011;37751;52.408;12.536;2024-03-02T06:33:47;81.00;;;43.45;;
51664;SDS011;37751;52.408;12.536;2024-03-02T06:36:39;87.90;;;44.70;;
51664;SDS011;37751;52.408;12.536;2024-03-02T06:39:13;86.38;;;43.25;;
51664;SDS011;37751;52.408;12.536;2024-03-02T06:42:04;82.10;;;42.15;;
51664;SDS011;37751;52.408;12.536;2024-03-02T06:44:38;83.78;;;43.22;;
51664;SDS011;37751;52.408;12.536;2024-03-02T06:47:09;90.20;;;44.22;;
51664;SDS011;37751;52.408;12.536;2024-03-02T06:50:00;78.63;;;42.53;;
51664;SDS011;37751;52.408;12.536;2024-03-02T06:52:34;83.78;;;43.28;;
51664;SDS011;37751;52.408;12.536;2024-03-02T06:55:29;84.03;;;43.22;;
51664;SDS011;37751;52.408;12.536;2024-03-02T06:58:01;81.45;;;42.40;;
51664;SDS011;37751;52.408;12.536;2024-03-02T07:00:32;86.85;;;43.25;;
51664;SDS011;37751;52.408;12.536;2024-03-02T07:03:21;86.05;;;42.33;;
51664;SDS011;37751;52.408;12.536;2024-03-02T07:06:01;83.80;;;42.90;;
51664;SDS011;37751;52.408;12.536;2024-03-02T07:08:34;80.97;;;41.67;;
51664;SDS011;37751;52.408;12.536;2024-03-02T07:11:11;87.72;;;43.65;;
51664;SDS011;37751;52.408;12.536;2024-03-02T07:14:02;81.97;;;42.53;;
51664;SDS011;37751;52.408;12.536;2024-03-02T07:16:34;82.72;;;40.53;;
51664;SDS011;37751;52.408;12.536;2024-03-02T07:19:07;74.18;;;40.17;;
51664;SDS011;37751;52.408;12.536;2024-03-02T07:21:49;86.13;;;42.15;;
51664;SDS011;37751;52.408;12.536;2024-03-02T07:24:21;82.88;;;41.83;;
51664;SDS011;37751;52.408;12.536;2024-03-02T07:26:59;75.25;;;41.28;;
51664;SDS011;37751;52.408;12.536;2024-03-02T07:29:31;76.47;;;39.40;;
51664;SDS011;37751;52.408;12.536;2024-03-02T07:32:03;75.15;;;40.33;;
51664;SDS011;37751;52.408;12.536;2024-03-02T07:34:55;77.47;;;40.67;;
51664;SDS011;37751;52.408;12.536;2024-03-02T07:37:37;75.80;;;39.00;;
51664;SDS011;37751;52.408;12.536;2024-03-02T07:40:28;72.38;;;40.75;;
51664;SDS011;37751;52.408;12.536;2024-03-02T07:43:22;69.20;;;38.67;;
51664;SDS011;37751;52.408;12.536;2024-03-02T07:45:54;68.15;;;38.60;;
51664;SDS011;37751;52.408;12.536;2024-03-02T07:48:39;70.15;;;37.20;;
51664;SDS011;37751;52.408;12.536;2024-03-02T07:51:32;67.72;;;38.08;;
51664;SDS011;37751;52.408;12.536;2024-03-02T07:54:14;68.07;;;38.05;;
51664;SDS011;37751;52.408;12.536;2024-03-02T07:57:08;69.43;;;38.22;;
51664;SDS011;37751;52.408;12.536;2024-03-02T07:59:52;68.38;;;37.63;;
51664;SDS011;37751;52.408;12.536;2024-03-02T08:02:32;67.68;;;38.35;;
51664;SDS011;37751;52.408;12.536;2024-03-02T08:05:37;65.38;;;36.72;;
51664;SDS011;37751;52.408;12.536;2024-03-02T08:08:14;72.75;;;38.53;;
51664;SDS011;37751;52.408;12.536;2024-03-02T08:10:45;72.03;;;38.67;;
51664;SDS011;37751;52.408;12.536;2024-03-02T08:13:37;77.80;;;38.03;;
51664;SDS011;37751;52.408;12.536;2024-03-02T08:16:31;68.03;;;37.33;;
51664;SDS011;37751;52.408;12.536;2024-03-02T08:19:17;65.88;;;36.40;;
51664;SDS011;37751;52.408;12.536;2024-03-02T08:22:09;64.70;;;35.80;;
51664;SDS011;37751;52.408;12.536;2024-03-02T08:24:43;70.68;;;36.38;;
51664;SDS011;37751;52.408;12.536;2024-03-02T08:27:35;62.42;;;34.42;;
51664;SDS011;37751;52.408;12.536;2024-03-02T08:30:27;69.38;;;38.08;;
51664;SDS011;37751;52.408;12.536;2024-03-02T08:33:32;60.90;;;35.17;;
51664;SDS011;37751;52.408;12.536;2024-03-02T08:36:42;60.63;;;36.03;;
51664;SDS011;37751;52.408;12.536;2024-03-02T08:39:13;62.58;;;34.95;;
51664;SDS011;37751;52.408;12.536;2024-03-02T08:41:49;57.63;;;34.95;;
51664;SDS011;37751;52.408;12.536;2024-03-02T08:44:31;57.70;;;33.97;;
51664;SDS011;37751;52.408;12.536;2024-03-02T08:47:02;58.03;;;32.95;;
51664;SDS011;37751;52.408;12.536;2024-03-02T08:49:47;55.70;;;33.08;;
51664;SDS011;37751;52.408;12.536;2024-03-02T08:52:41;57.00;;;33.58;;
51664;SDS011;37751;52.408;12.536;2024-03-02T08:55:20;59.10;;;33.42;;
51664;SDS011;37751;52.408;12.536;2024-03-02T08:58:14;54.15;;;32.15;;
51664;SDS011;37751;52.408;12.536;2024-03-02T09:00:59;59.25;;;33.33;;
51664;SDS011;37751;52.408;12.536;2024-03-02T09:03:51;54.75;;;32.55;;
51664;SDS011;37751;52.408;12.536;2024-03-02T09:06:26;55.78;;;31.50;;
51664;SDS011;37751;52.408;12.536;2024-03-02T09:08:57;56.08;;;32.28;;
51664;SDS011;37751;52.408;12.536;2024-03-02T09:11:28;50.35;;;29.98;;
51664;SDS011;37751;52.408;12.536;2024-03-02T09:14:00;52.33;;;31.98;;
51664;SDS011;37751;52.408;12.536;2024-03-02T09:16:32;45.58;;;28.25;;
51664;SDS011;37751;52.408;12.536;2024-03-02T09:19:03;44.42;;;28.77;;
51664;SDS011;37751;52.408;12.536;2024-03-02T09:21:38;49.28;;;28.27;;
51664;SDS011;37751;52.408;12.536;2024-03-02T09:24:11;49.05;;;29.70;;
51664;SDS011;37751;52.408;12.536;2024-03-02T09:26:44;47.80;;;29.05;;
51664;SDS011;37751;52.408;12.536;2024-03-02T09:29:17;45.90;;;29.48;;
51664;SDS011;37751;52.408;12.536;2024-03-02T09:31:48;54.03;;;29.05;;
51664;SDS011;37751;52.408;12.536;2024-03-02T09:34:20;45.10;;;27.00;;
51664;SDS011;37751;52.408;12.536;2024-03-02T09:36:55;47.40;;;28.58;;
51664;SDS011;37751;52.408;12.536;2024-03-02T09:39:30;49.67;;;27.90;;
51664;SDS011;37751;52.408;12.536;2024-03-02T09:42:02;49.10;;;27.60;;
51664;SDS011;37751;52.408;12.536;2024-03-02T09:44:35;48.08;;;27.45;;
51664;SDS011;37751;52.408;12.536;2024-03-02T09:47:07;51.25;;;29.52;;
51664;SDS011;37751;52.408;12.536;2024-03-02T09:49:42;47.55;;;28.25;;
51664;SDS011;37751;52.408;12.536;2024-03-02T09:52:17;46.97;;;28.85;;
51664;SDS011;37751;52.408;12.536;2024-03-02T09:54:48;46.80;;;28.42;;
51664;SDS011;37751;52.408;12.536;2024-03-02T09:57:20;45.15;;;28.25;;
51664;SDS011;37751;52.408;12.536;2024-03-02T09:59:51;48.30;;;27.42;;
51664;SDS011;37751;52.408;12.536;2024-03-02T10:02:31;37.95;;;25.98;;
51664;SDS011;37751;52.408;12.536;2024-03-02T10:05:02;44.45;;;25.45;;
51664;SDS011;37751;52.408;12.536;2024-03-02T10:07:38;41.95;;;26.83;;
51664;SDS011;37751;52.408;12.536;2024-03-02T10:10:13;42.80;;;25.80;;
51664;SDS011;37751;52.408;12.536;2024-03-02T10:13:09;40.33;;;25.50;;
51664;SDS011;37751;52.408;12.536;2024-03-02T10:15:42;42.63;;;24.88;;
51664;SDS011;37751;52.408;12.536;2024-03-02T10:18:26;40.15;;;25.52;;
51664;SDS011;37751;52.408;12.536;2024-03-02T10:21:04;39.35;;;24.50;;
51664;SDS011;37751;52.408;12.536;2024-03-02T10:24:09;41.47;;;24.92;;
51664;SDS011;37751;52.408;12.536;2024-03-02T10:26:47;39.55;;;24.30;;
51664;SDS011;37751;52.408;12.536;2024-03-02T10:29:22;39.10;;;24.42;;
51664;SDS011;37751;52.408;12.536;2024-03-02T10:32:14;37.60;;;24.60;;
51664;SDS011;37751;52.408;12.536;2024-03-02T10:34:46;40.28;;;24.10;;
51664;SDS011;37751;52.408;12.536;2024-03-02T10:37:21;38.70;;;24.05;;
51664;SDS011;37751;52.408;12.536;2024-03-02T10:39:57;37.92;;;23.42;;
51664;SDS011;37751;52.408;12.536;2024-03-02T10:43:00;38.00;;;24.17;;
51664;SDS011;37751;52.408;12.536;2024-03-02T10:45:33;41.00;;;24.98;;
51664;SDS011;37751;52.408;12.536;2024-03-02T10:48:25;37.10;;;24.25;;
51664;SDS011;37751;52.408;12.536;2024-03-02T10:51:01;40.58;;;24.52;;
51664;SDS011;37751;52.408;12.536;2024-03-02T10:53:41;37.72;;;24.20;;
51664;SDS011;37751;52.408;12.536;2024-03-02T10:56:27;35.92;;;23.10;;
51664;SDS011;37751;52.408;12.536;2024-03-02T10:59:11;38.03;;;22.90;;
51664;SDS011;37751;52.408;12.536;2024-03-02T11:02:03;39.00;;;24.40;;
51664;SDS011;37751;52.408;12.536;2024-03-02T11:04:36;37.72;;;21.85;;
51664;SDS011;37751;52.408;12.536;2024-03-02T11:07:30;33.00;;;20.92;;
51664;SDS011;37751;52.408;12.536;2024-03-02T11:10:02;32.30;;;20.98;;
51664;SDS011;37751;52.408;12.536;2024-03-02T11:12:43;32.63;;;20.88;;
51664;SDS011;37751;52.408;12.536;2024-03-02T11:15:24;31.40;;;19.42;;
51664;SDS011;37751;52.408;12.536;2024-03-02T11:18:00;28.70;;;18.10;;
51664;SDS011;37751;52.408;12.536;2024-03-02T11:20:54;29.52;;;18.25;;
51664;SDS011;37751;52.408;12.536;2024-03-02T11:23:31;27.48;;;18.02;;
51664;SDS011;37751;52.408;12.536;2024-03-02T11:28:53;27.17;;;17.65;;
51664;SDS011;37751;52.408;12.536;2024-03-02T11:34:32;29.25;;;18.60;;
51664;SDS011;37751;52.408;12.536;2024-03-02T11:37:09;29.35;;;18.70;;
51664;SDS011;37751;52.408;12.536;2024-03-02T11:39:41;25.48;;;17.15;;
51664;SDS011;37751;52.408;12.536;2024-03-02T11:42:17;28.50;;;18.63;;
51664;SDS011;37751;52.408;12.536;2024-03-02T11:44:51;25.25;;;15.10;;
51664;SDS011;37751;52.408;12.536;2024-03-02T11:47:31;23.73;;;16.30;;
51664;SDS011;37751;52.408;12.536;2024-03-02T11:50:07;24.02;;;15.52;;
51664;SDS011;37751;52.408;12.536;2024-03-02T11:52:39;22.58;;;15.65;;
51664;SDS011;37751;52.408;12.536;2024-03-02T11:55:12;21.33;;;14.60;;
51664;SDS011;37751;52.408;12.536;2024-03-02T11:57:46;19.73;;;13.88;;
51664;SDS011;37751;52.408;12.536;2024-03-02T12:00:22;20.92;;;13.73;;
51664;SDS011;37751;52.408;12.536;2024-03-02T12:03:13;21.52;;;12.73;;
51664;SDS011;37751;52.408;12.536;2024-03-02T12:05:48;17.63;;;12.23;;
51664;SDS011;37751;52.408;12.536;2024-03-02T12:08:20;23.77;;;13.35;;
51664;SDS011;37751;52.408;12.536;2024-03-02T12:10:56;18.60;;;12.75;;
51664;SDS011;37751;52.408;12.536;2024-03-02T12:13:30;20.23;;;14.05;;
51664;SDS011;37751;52.408;12.536;2024-03-02T12:16:05;20.85;;;13.98;;
51664;SDS011;37751;52.408;12.536;2024-03-02T12:18:36;18.38;;;13.07;;
51664;SDS011;37751;52.408;12.536;2024-03-02T12:21:12;18.08;;;12.55;;
51664;SDS011;37751;52.408;12.536;2024-03-02T12:23:44;19.30;;;12.75;;
51664;SDS011;37751;52.408;12.536;2024-03-02T12:26:17;18.20;;;11.88;;
51664;SDS011;37751;52.408;12.536;2024-03-02T12:28:48;18.52;;;11.63;;
51664;SDS011;37751;52.408;12.536;2024-03-02T12:31:22;19.10;;;12.55;;
51664;SDS011;37751;52.408;12.536;2024-03-02T12:33:55;20.80;;;13.43;;
51664;SDS011;37751;52.408;12.536;2024-03-02T12:36:26;18.90;;;13.02;;
51664;SDS011;37751;52.408;12.536;2024-03-02T12:39:10;19.65;;;12.85;;
51664;SDS011;37751;52.408;12.536;2024-03-02T12:41:44;19.58;;;13.13;;
51664;SDS011;37751;52.408;12.536;2024-03-02T12:44:18;20.25;;;13.45;;
51664;SDS011;37751;52.408;12.536;2024-03-02T12:46:53;19.42;;;12.48;;
51664;SDS011;37751;52.408;12.536;2024-03-02T12:49:40;15.32;;;10.63;;
51664;SDS011;37751;52.408;12.536;2024-03-02T12:52:23;18.55;;;11.00;;
51664;SDS011;37751;52.408;12.536;2024-03-02T12:54:56;16.98;;;10.77;;
51664;SDS011;37751;52.408;12.536;2024-03-02T12:57:29;17.00;;;11.32;;
51664;SDS011;37751;52.408;12.536;2024-03-02T13:00:03;17.92;;;12.32;;
51664;SDS011;37751;52.408;12.536;2024-03-02T13:02:40;18.98;;;11.50;;
51664;SDS011;37751;52.408;12.536;2024-03-02T13:05:32;18.05;;;11.35;;
51664;SDS011;37751;52.408;12.536;2024-03-02T13:08:04;16.10;;;12.10;;
51664;SDS011;37751;52.408;12.536;2024-03-02T13:10:39;17.58;;;11.80;;
51664;SDS011;37751;52.408;12.536;2024-03-02T13:13:11;17.65;;;12.05;;
51664;SDS011;37751;52.408;12.536;2024-03-02T13:15:47;14.70;;;10.50;;
51664;SDS011;37751;52.408;12.536;2024-03-02T13:18:25;17.70;;;10.63;;
51664;SDS011;37751;52.408;12.536;2024-03-02T13:20:57;15.13;;;9.05;;
51664;SDS011;37751;52.408;12.536;2024-03-02T13:23:28;14.88;;;9.50;;
51664;SDS011;37751;52.408;12.536;2024-03-02T13:26:09;16.45;;;10.85;;
51664;SDS011;37751;52.408;12.536;2024-03-02T13:28:42;16.45;;;10.60;;
51664;SDS011;37751;52.408;12.536;2024-03-02T13:31:19;14.13;;;9.88;;
51664;SDS011;37751;52.408;12.536;2024-03-02T13:33:54;17.30;;;9.93;;
51664;SDS011;37751;52.408;12.536;2024-03-02T13:36:31;12.73;;;8.75;;
51664;SDS011;37751;52.408;12.536;2024-03-02T13:39:03;12.52;;;7.82;;
51664;SDS011;37751;52.408;12.536;2024-03-02T13:41:38;13.68;;;7.93;;
51664;SDS011;37751;52.408;12.536;2024-03-02T13:44:14;16.27;;;10.25;;
51664;SDS011;37751;52.408;12.536;2024-03-02T13:46:54;11.73;;;8.15;;
51664;SDS011;37751;52.408;12.536;2024-03-02T13:49:32;12.13;;;7.63;;
51664;SDS011;37751;52.408;12.536;2024-03-02T13:52:05;12.50;;;7.63;;
51664;SDS011;37751;52.408;12.536;2024-03-02T13:54:47;12.13;;;8.00;;
51664;SDS011;37751;52.408;12.536;2024-03-02T13:57:21;12.60;;;7.45;;
51664;SDS011;37751;52.408;12.536;2024-03-02T13:59:53;11.30;;;7.85;;
51664;SDS011;37751;52.408;12.536;2024-03-02T14:02:28;10.60;;;7.55;;
51664;SDS011;37751;52.408;12.536;2024-03-02T14:05:03;13.10;;;8.77;;
51664;SDS011;37751;52.408;12.536;2024-03-02T14:07:42;14.02;;;8.45;;
51664;SDS011;37751;52.408;12.536;2024-03-02T14:10:25;13.23;;;8.90;;
51664;SDS011;37751;52.408;12.536;2024-03-02T14:12:57;12.95;;;8.70;;
51664;SDS011;37751;52.408;12.536;2024-03-02T14:15:31;15.18;;;10.02;;
51664;SDS011;37751;52.408;12.536;2024-03-02T14:18:06;17.40;;;10.13;;
51664;SDS011;37751;52.408;12.536;2024-03-02T14:20:48;17.55;;;11.23;;
51664;SDS011;37751;52.408;12.536;2024-03-02T14:23:23;17.23;;;11.07;;
51664;SDS011;37751;52.408;12.536;2024-03-02T14:26:06;18.10;;;10.63;;
51664;SDS011;37751;52.408;12.536;2024-03-02T14:28:38;18.60;;;10.50;;
51664;SDS011;37751;52.408;12.536;2024-03-02T14:31:17;12.57;;;9.00;;
51664;SDS011;37751;52.408;12.536;2024-03-02T14:33:56;15.38;;;9.05;;
51664;SDS011;37751;52.408;12.536;2024-03-02T14:36:37;13.75;;;8.25;;
51664;SDS011;37751;52.408;12.536;2024-03-02T14:39:18;9.38;;;5.65;;
51664;SDS011;37751;52.408;12.536;2024-03-02T14:41:54;6.32;;;4.53;;
51664;SDS011;37751;52.408;12.536;2024-03-02T14:44:25;6.65;;;4.40;;
51664;SDS011;37751;52.408;12.536;2024-03-02T14:46:57;5.57;;;4.15;;
51664;SDS011;37751;52.408;12.536;2024-03-02T14:49:56;9.40;;;5.95;;
51664;SDS011;37751;52.408;12.536;2024-03-02T14:52:37;11.15;;;6.47;;
51664;SDS011;37751;52.408;12.536;2024-03-02T14:55:12;9.10;;;5.63;;
51664;SDS011;37751;52.408;12.536;2024-03-02T14:57:44;12.38;;;6.80;;
51664;SDS011;37751;52.408;12.536;2024-03-02T15:00:18;14.55;;;9.15;;
51664;SDS011;37751;52.408;12.536;2024-03-02T15:02:50;11.77;;;8.77;;
51664;SDS011;37751;52.408;12.536;2024-03-02T15:05:27;13.63;;;8.63;;
51664;SDS011;37751;52.408;12.536;2024-03-02T15:08:21;16.13;;;9.70;;
51664;SDS011;37751;52.408;12.536;2024-03-02T15:10:53;13.93;;;9.15;;
51664;SDS011;37751;52.408;12.536;2024-03-02T15:13:39;14.05;;;9.30;;
51664;SDS011;37751;52.408;12.536;2024-03-02T15:16:10;14.88;;;10.68;;
51664;SDS011;37751;52.408;12.536;2024-03-02T15:18:42;17.63;;;10.00;;
51664;SDS011;37751;52.408;12.536;2024-03-02T15:21:20;16.17;;;10.25;;